Terminal Aerodrome Forecast
Issued by NWS Twin Cities, MN

Home | Current Version | Previous Version | Graphics & Text | Print | Product List | Glossary On
Versions: 1 2 3 4 5 6 7 8 9 10 11 12 13 14 15 16 17 18 19 20 21 22 23 24
000
FTUS43 KMPX 211300 AAA
TAFEAU
TAF AMD
KEAU 211329Z 2114/2212 11008KT 6SM -RA BR SCT015 OVC050
      TEMPO 2113/2115 3SM TSRA BKN015
     FM211530 15010KT P6SM SCT025 BKN040
     FM212100 18007KT P6SM SCT040
     FM220500 VRB03KT 4SM BR SCT003
     FM220800 VRB03KT 1/4SM FG VV001=

USA.gov is the U.S. government's official web portal to all federal, state and local government web resources and services.